createdAt,value
2018-12-19T00:01:44.171Z,12.43
2018-12-19T00:04:21.795Z,13.53
2018-12-19T00:09:57.179Z,14.30
2018-12-19T00:12:34.201Z,13.73
2018-12-19T00:15:05.349Z,12.60
2018-12-19T00:17:41.539Z,15.57
2018-12-19T00:20:19.001Z,15.03
2018-12-19T00:22:59.786Z,14.00
2018-12-19T00:25:34.487Z,14.83
2018-12-19T00:28:13.711Z,14.87
2018-12-19T00:30:54.815Z,13.97
2018-12-19T00:33:32.633Z,14.40
2018-12-19T00:36:05.534Z,14.53
2018-12-19T00:38:48.095Z,15.17
2018-12-19T00:44:27.794Z,15.37
2018-12-19T00:49:46.189Z,15.90
2018-12-19T00:52:27.534Z,12.83
2018-12-19T00:55:03.012Z,15.43
2018-12-19T00:57:40.493Z,14.23
2018-12-19T01:00:15.464Z,13.97
2018-12-19T01:02:50.367Z,15.97
2018-12-19T01:05:29.411Z,15.77
2018-12-19T01:08:06.771Z,12.37
2018-12-19T01:10:41.903Z,13.20
2018-12-19T01:16:07.782Z,14.67
2018-12-19T01:18:44.843Z,14.77
2018-12-19T01:21:20.081Z,16.53
2018-12-19T01:23:55.428Z,14.67
2018-12-19T01:26:30.530Z,17.17
2018-12-19T01:29:03.252Z,16.33
2018-12-19T01:31:38.364Z,15.70
2018-12-19T01:34:13.386Z,16.87
2018-12-19T01:36:48.071Z,16.07
2018-12-19T01:39:22.610Z,18.37
2018-12-19T01:41:57.755Z,14.07
2018-12-19T01:44:32.942Z,16.00
2018-12-19T01:47:07.834Z,17.03
2018-12-19T01:49:42.791Z,15.63
2018-12-19T01:52:15.594Z,15.67
2018-12-19T01:54:50.819Z,15.20
2018-12-19T01:57:26.046Z,15.17
2018-12-19T01:59:58.668Z,15.30
2018-12-19T02:02:33.775Z,15.93
2018-12-19T02:05:06.704Z,15.37
2018-12-19T02:07:41.998Z,17.27
2018-12-19T02:10:14.671Z,17.50
2018-12-19T02:12:50.107Z,19.27
2018-12-19T02:15:20.903Z,15.47
2018-12-19T02:20:26.307Z,18.83
2018-12-19T02:23:01.377Z,18.57
2018-12-19T02:25:36.399Z,17.53
2018-12-19T02:28:11.658Z,16.13
2018-12-19T02:30:46.758Z,15.93
2018-12-19T02:33:21.911Z,16.30
2018-12-19T02:35:56.922Z,17.97
2018-12-19T02:38:29.936Z,17.07
2018-12-19T02:41:05.164Z,17.23
2018-12-19T02:43:40.172Z,16.53
2018-12-19T02:46:14.952Z,17.50
2018-12-19T02:48:47.645Z,16.70
2018-12-19T02:51:23.044Z,19.23
2018-12-19T02:53:58.406Z,17.30
2018-12-19T02:56:33.528Z,17.13
2018-12-19T02:59:06.535Z,19.73
2018-12-19T03:01:42.147Z,15.93
2018-12-19T03:04:17.444Z,15.93
2018-12-19T03:06:50.360Z,15.13
2018-12-19T03:09:23.395Z,17.33
2018-12-19T03:11:53.963Z,17.90
2018-12-19T03:14:27.355Z,18.37
2018-12-19T03:17:02.703Z,16.87
2018-12-19T03:22:11.363Z,16.33
2018-12-19T03:24:46.508Z,16.83
2018-12-19T03:27:21.830Z,17.30
2018-12-19T03:29:57.030Z,16.73
2018-12-19T03:32:32.040Z,17.73
2018-12-19T03:35:03.011Z,17.37
2018-12-19T03:37:38.155Z,18.13
2018-12-19T03:40:10.948Z,16.60
2018-12-19T03:42:46.159Z,17.93
2018-12-19T03:45:21.142Z,17.67
2018-12-19T03:47:56.119Z,19.33
2018-12-19T03:50:28.992Z,15.83
2018-12-19T03:53:04.376Z,16.40
2018-12-19T03:55:39.384Z,20.60
2018-12-19T03:58:14.810Z,19.27
2018-12-19T04:00:50.027Z,18.13
2018-12-19T04:03:25.251Z,19.10
2018-12-19T04:06:00.375Z,15.83
2018-12-19T04:08:31.102Z,16.83
2018-12-19T04:11:06.514Z,19.37
2018-12-19T04:13:41.608Z,19.13
2018-12-19T04:16:16.463Z,17.87
2018-12-19T04:18:49.276Z,18.00
2018-12-19T04:23:51.527Z,17.57
2018-12-19T04:26:26.962Z,17.53
2018-12-19T04:29:02.013Z,17.40
2018-12-19T04:31:37.244Z,19.43
2018-12-19T04:34:18.323Z,19.13
2018-12-19T04:36:56.975Z,16.63
2018-12-19T04:39:32.461Z,17.93
2018-12-19T04:42:11.319Z,17.63
2018-12-19T04:44:48.206Z,17.43
2018-12-19T04:47:25.408Z,17.03
2018-12-19T04:50:01.396Z,25.63
2018-12-19T04:52:36.992Z,18.67
2018-12-19T04:55:13.132Z,16.80
2018-12-19T04:57:43.749Z,16.47
2018-12-19T05:00:14.718Z,18.83
2018-12-19T05:02:50.320Z,20.30
2018-12-19T05:05:22.982Z,19.00
2018-12-19T05:08:00.579Z,17.53
2018-12-19T05:10:35.492Z,17.57
2018-12-19T05:13:10.280Z,19.50
2018-12-19T05:15:45.180Z,15.70
2018-12-19T05:18:30.393Z,17.83
2018-12-19T05:21:17.277Z,17.17
2018-12-19T05:26:28.371Z,19.50
2018-12-19T05:29:05.431Z,18.23
2018-12-19T05:31:40.564Z,18.23
2018-12-19T05:34:22.745Z,17.03
2018-12-19T05:37:01.517Z,17.43
2018-12-19T05:39:37.902Z,19.23
2018-12-19T05:42:10.551Z,17.60
2018-12-19T05:44:41.880Z,19.13
2018-12-19T05:47:17.359Z,19.17
2018-12-19T05:49:51.855Z,16.63
2018-12-19T05:52:37.259Z,15.83
2018-12-19T05:55:20.133Z,17.50
2018-12-19T05:57:58.812Z,18.57
2018-12-19T06:00:36.135Z,16.53
2018-12-19T06:03:19.985Z,17.10
2018-12-19T06:05:50.755Z,17.53
2018-12-19T06:08:21.732Z,17.87
2018-12-19T06:11:03.256Z,16.67
2018-12-19T06:13:36.656Z,17.77
2018-12-19T06:16:19.016Z,18.83
2018-12-19T06:18:51.595Z,18.37
2018-12-19T06:21:34.130Z,19.27
2018-12-19T06:24:11.319Z,18.07
2018-12-19T06:26:43.835Z,17.27
2018-12-19T06:29:17.023Z,19.43
2018-12-19T06:36:59.392Z,17.23
2018-12-19T06:39:34.467Z,17.43
2018-12-19T06:42:09.351Z,20.77
2018-12-19T06:44:44.219Z,20.17
2018-12-19T06:50:14.023Z,18.83
2018-12-19T06:52:52.768Z,20.43
2018-12-19T06:55:28.052Z,17.23
2018-12-19T06:58:00.638Z,18.30
2018-12-19T07:00:35.943Z,19.00
2018-12-19T07:03:10.715Z,18.23
2018-12-19T07:05:41.379Z,17.30
2018-12-19T07:11:02.951Z,21.20
2018-12-19T07:16:26.065Z,19.37
2018-12-19T07:19:07.737Z,19.97
2018-12-19T07:24:47.823Z,20.10
2018-12-19T07:27:25.601Z,17.83
2018-12-19T07:29:59.654Z,21.93
2018-12-19T07:32:37.784Z,20.43
2018-12-19T07:35:11.826Z,22.90
2018-12-19T07:37:47.355Z,20.97
2018-12-19T07:40:27.500Z,22.00
2018-12-19T07:43:08.372Z,20.70
2018-12-19T07:45:44.632Z,19.93
2018-12-19T07:48:23.581Z,19.20
2018-12-19T07:51:01.357Z,22.60
2018-12-19T07:53:32.623Z,19.57
2018-12-19T07:56:08.296Z,19.03
2018-12-19T07:58:44.120Z,21.50
2018-12-19T08:01:20.175Z,23.33
2018-12-19T08:03:57.642Z,23.50
2018-12-19T08:06:32.936Z,25.03
2018-12-19T08:09:09.192Z,20.20
2018-12-19T08:11:41.176Z,22.03
2018-12-19T08:14:28.958Z,23.37
2018-12-19T08:17:16.565Z,22.07
2018-12-19T08:19:58.515Z,23.27
2018-12-19T08:22:46.281Z,22.77
2018-12-19T08:25:34.368Z,21.83
2018-12-19T08:28:10.536Z,22.20
2018-12-19T08:30:49.975Z,26.03
2018-12-19T08:33:26.166Z,23.13
2018-12-19T08:36:04.758Z,20.90
2018-12-19T08:38:42.402Z,23.47
2018-12-19T08:41:26.915Z,19.27
2018-12-19T08:44:06.452Z,22.93
2018-12-19T08:46:39.637Z,21.47
2018-12-19T08:49:15.089Z,23.93
2018-12-19T08:51:51.148Z,23.07
2018-12-19T08:54:24.305Z,21.70
2018-12-19T08:57:02.598Z,21.70
2018-12-19T08:59:38.747Z,20.93
2018-12-19T09:02:14.071Z,19.77
2018-12-19T09:04:52.413Z,19.57
2018-12-19T09:07:30.765Z,20.27
2018-12-19T09:10:05.352Z,18.27
2018-12-19T09:12:47.681Z,20.17
2018-12-19T09:15:27.804Z,20.87
2018-12-19T09:18:04.743Z,21.20
2018-12-19T09:20:40.811Z,18.37
2018-12-19T09:23:17.384Z,19.40
2018-12-19T09:25:48.903Z,18.63
2018-12-19T09:28:22.077Z,17.97
2018-12-19T09:31:05.648Z,18.57
2018-12-19T09:33:41.432Z,18.17
2018-12-19T09:36:17.310Z,19.80
2018-12-19T09:38:53.430Z,18.47
2018-12-19T09:41:29.600Z,16.47
2018-12-19T09:44:11.848Z,19.83
2018-12-19T09:46:51.765Z,17.83
2018-12-19T09:49:37.348Z,17.23
2018-12-19T09:52:13.140Z,16.93
2018-12-19T09:55:01.223Z,17.63
2018-12-19T09:57:49.162Z,18.43
2018-12-19T10:00:28.747Z,16.70
2018-12-19T10:03:02.032Z,17.97
2018-12-19T10:05:41.764Z,20.03
2018-12-19T10:08:18.103Z,16.97
2018-12-19T10:10:55.331Z,16.50
2018-12-19T10:13:31.127Z,16.77
2018-12-19T10:16:12.659Z,17.50
2018-12-19T10:18:46.447Z,16.03
2018-12-19T10:21:23.754Z,16.33
2018-12-19T10:23:59.848Z,17.20
2018-12-19T10:26:35.992Z,17.03
2018-12-19T10:29:12.100Z,17.17
2018-12-19T10:31:48.345Z,17.13
2018-12-19T10:34:24.460Z,16.53
2018-12-19T10:37:07.995Z,18.47
2018-12-19T10:39:41.623Z,17.60
2018-12-19T10:42:17.031Z,16.43
2018-12-19T10:44:53.216Z,16.60
2018-12-19T10:47:25.211Z,14.87
2018-12-19T10:50:07.683Z,13.90
2018-12-19T10:52:51.380Z,16.73
2018-12-19T10:55:27.396Z,16.60
2018-12-19T10:58:03.587Z,16.33
2018-12-19T11:00:44.629Z,15.60
2018-12-19T11:03:21.582Z,17.33
2018-12-19T11:09:03.983Z,18.77
2018-12-19T11:11:46.043Z,20.17
2018-12-19T11:14:21.915Z,18.83
2018-12-19T11:17:08.460Z,17.93
2018-12-19T11:19:44.484Z,18.47
2018-12-19T11:22:20.568Z,18.13
2018-12-19T11:24:56.716Z,21.03
2018-12-19T11:27:43.428Z,18.93
2018-12-19T11:33:14.159Z,19.47
2018-12-19T11:35:50.638Z,24.27
2018-12-19T11:38:24.284Z,18.03
2018-12-19T11:40:59.788Z,20.53
2018-12-19T11:51:14.772Z,33.33
2018-12-19T11:53:50.945Z,42.00
2018-12-19T11:56:27.082Z,28.70
2018-12-19T11:59:09.022Z,22.17
2018-12-19T12:01:45.550Z,24.60
2018-12-19T12:04:21.666Z,23.73
2018-12-19T12:07:00.740Z,22.47
2018-12-19T12:09:34.845Z,20.90
2018-12-19T12:12:17.344Z,24.87
2018-12-19T12:14:48.996Z,22.60
2018-12-19T12:17:25.645Z,24.50
2018-12-19T12:20:08.247Z,24.97
2018-12-19T12:22:41.163Z,24.67
2018-12-19T12:25:15.228Z,26.20
2018-12-19T12:27:52.619Z,27.20
2018-12-19T12:30:32.355Z,30.33
2018-12-19T12:33:08.591Z,26.53
2018-12-19T12:35:49.918Z,26.03
2018-12-19T12:38:25.733Z,25.80
2018-12-19T12:41:04.331Z,23.47
2018-12-19T12:43:40.245Z,28.17
2018-12-19T12:46:22.640Z,26.80
2018-12-19T12:49:03.704Z,26.47
2018-12-19T12:51:39.833Z,26.03
2018-12-19T12:54:23.380Z,23.57
2018-12-19T12:57:01.304Z,21.87
2018-12-19T12:59:35.365Z,21.57
2018-12-19T13:02:10.699Z,23.23
2018-12-19T13:04:49.380Z,22.33
2018-12-19T13:07:25.201Z,21.03
2018-12-19T13:10:02.235Z,20.73
2018-12-19T13:12:38.732Z,21.80
2018-12-19T13:15:25.978Z,23.67
2018-12-19T13:18:12.507Z,21.80
2018-12-19T13:20:55.214Z,21.93
2018-12-19T13:23:42.400Z,21.00
2018-12-19T13:26:19.436Z,23.30
2018-12-19T13:28:55.286Z,21.77
2018-12-19T13:31:31.139Z,22.50
2018-12-19T13:34:07.076Z,22.10
2018-12-19T13:36:43.115Z,22.70
2018-12-19T13:39:16.801Z,22.50
2018-12-19T13:41:56.396Z,21.87
2018-12-19T13:44:38.731Z,20.83
2018-12-19T13:47:10.260Z,21.10
2018-12-19T13:49:51.796Z,19.77
2018-12-19T13:57:41.906Z,20.30
2018-12-19T14:00:24.068Z,20.20
2018-12-19T14:02:59.644Z,18.33
2018-12-19T14:05:35.720Z,19.07
2018-12-19T14:08:07.372Z,20.60
2018-12-19T14:10:41.208Z,18.27
2018-12-19T14:13:21.064Z,17.73
2018-12-19T14:15:57.157Z,18.90
2018-12-19T14:18:33.300Z,18.80
2018-12-19T14:21:09.419Z,17.13
2018-12-19T14:23:53.772Z,19.70
2018-12-19T14:26:37.891Z,23.07
2018-12-19T14:29:09.196Z,20.13
2018-12-19T14:31:46.132Z,21.80
2018-12-19T14:34:25.634Z,23.60
2018-12-19T14:36:59.484Z,16.93
2018-12-19T14:39:32.905Z,14.80
2018-12-19T14:42:19.098Z,16.17
2018-12-19T14:44:52.483Z,17.07
2018-12-19T14:47:32.594Z,17.30
2018-12-19T14:50:07.088Z,18.90
2018-12-19T14:52:48.769Z,17.07
2018-12-19T14:55:24.291Z,14.73
2018-12-19T14:58:00.513Z,16.77
2018-12-19T15:00:36.639Z,15.37
2018-12-19T15:03:12.561Z,16.33
2018-12-19T15:05:48.579Z,14.97
2018-12-19T15:08:20.455Z,17.20
2018-12-19T15:10:59.889Z,16.83
2018-12-19T15:13:40.017Z,16.27
2018-12-19T15:16:19.731Z,15.77
2018-12-19T15:18:50.694Z,14.77
2018-12-19T15:21:26.036Z,15.57
2018-12-19T15:23:57.054Z,19.52
2018-12-19T15:26:28.132Z,17.93
2018-12-19T15:29:09.448Z,18.00
2018-12-19T15:31:44.540Z,14.73
2018-12-19T15:34:23.644Z,16.10
2018-12-19T15:37:00.232Z,20.30
2018-12-19T15:39:31.507Z,19.87
2018-12-19T15:42:06.848Z,16.63
2018-12-19T15:44:41.715Z,17.20
2018-12-19T15:50:05.175Z,15.03
2018-12-19T15:52:40.363Z,16.77
2018-12-19T15:55:15.269Z,18.03
2018-12-19T15:57:58.022Z,15.70
2018-12-19T16:03:02.522Z,18.87
2018-12-19T16:05:32.931Z,24.10
2018-12-19T16:08:14.472Z,20.87
2018-12-19T16:10:49.252Z,19.33
2018-12-19T16:13:24.059Z,19.77
2018-12-19T16:16:04.278Z,20.37
2018-12-19T16:18:41.882Z,19.03
2018-12-19T16:21:23.044Z,18.63
2018-12-19T16:23:57.852Z,20.50
2018-12-19T16:26:36.651Z,21.53
2018-12-19T16:29:17.582Z,19.30
2018-12-19T16:31:52.600Z,17.00
2018-12-19T16:34:27.719Z,20.70
2018-12-19T16:37:03.038Z,19.70
2018-12-19T16:39:35.902Z,20.83
2018-12-19T16:42:11.220Z,21.17
2018-12-19T16:44:46.018Z,20.90
2018-12-19T16:47:21.044Z,18.77
2018-12-19T16:49:53.948Z,18.30
2018-12-19T16:52:34.964Z,21.43
2018-12-19T16:55:11.318Z,19.07
2018-12-19T16:57:46.867Z,18.67
2018-12-19T17:00:21.759Z,19.17
2018-12-19T17:05:25.696Z,20.70
2018-12-19T17:07:58.908Z,21.93
2018-12-19T17:10:30.084Z,28.00
2018-12-19T17:13:07.364Z,23.43
2018-12-19T17:15:40.381Z,19.40
2018-12-19T17:18:17.738Z,18.10
2018-12-19T17:20:53.012Z,28.07
2018-12-19T17:23:28.224Z,23.50
2018-12-19T17:26:04.240Z,24.57
2018-12-19T17:28:38.106Z,23.33
2018-12-19T17:31:20.851Z,24.63
2018-12-19T17:34:01.519Z,22.67
2018-12-19T17:36:37.400Z,26.10
2018-12-19T17:39:13.514Z,22.57
2018-12-19T17:41:49.540Z,20.43
2018-12-19T17:44:28.991Z,27.10
2018-12-19T17:47:04.219Z,21.40
2018-12-19T17:49:36.822Z,18.97
2018-12-19T17:52:12.146Z,22.00
2018-12-19T17:54:49.108Z,21.33
2018-12-19T17:57:19.494Z,20.47
2018-12-19T17:59:52.564Z,21.10
2018-12-19T18:02:28.235Z,22.47
2018-12-19T18:05:03.263Z,22.53
2018-12-19T18:07:36.294Z,22.80
2018-12-19T18:10:11.387Z,20.63
2018-12-19T18:12:48.046Z,20.63
2018-12-19T18:15:22.863Z,20.83
2018-12-19T18:18:00.103Z,20.80
2018-12-19T18:20:35.232Z,19.87
2018-12-19T18:23:10.159Z,20.27
2018-12-19T18:25:48.095Z,21.97
2018-12-19T18:28:32.529Z,22.27
2018-12-19T18:31:11.662Z,24.23
2018-12-19T18:33:54.512Z,21.00
2018-12-19T18:36:27.631Z,24.90
2018-12-19T18:39:08.219Z,23.03
2018-12-19T18:41:53.268Z,23.83
2018-12-19T18:44:29.937Z,20.87
2018-12-19T18:47:01.617Z,20.83
2018-12-19T18:49:41.728Z,22.23
2018-12-19T18:52:20.033Z,22.23
2018-12-19T18:55:02.619Z,24.57
2018-12-19T18:57:45.573Z,22.60
2018-12-19T19:00:23.479Z,23.80
2018-12-19T19:03:00.741Z,22.10
2018-12-19T19:05:33.948Z,20.63
2018-12-19T19:08:13.579Z,23.70
2018-12-19T19:10:49.803Z,25.10
2018-12-19T19:13:23.613Z,24.90
2018-12-19T19:16:01.755Z,23.53
2018-12-19T19:18:37.762Z,19.80
2018-12-19T19:21:14.070Z,20.07
2018-12-19T19:23:50.151Z,21.77
2018-12-19T19:26:26.304Z,19.33
2018-12-19T19:28:59.917Z,19.30
2018-12-19T19:31:35.639Z,19.67
2018-12-19T19:34:15.324Z,21.33
2018-12-19T19:36:53.648Z,21.17
2018-12-19T19:39:29.549Z,18.57
2018-12-19T19:42:06.045Z,20.37
2018-12-19T19:44:42.235Z,18.27
2018-12-19T19:47:19.488Z,18.43
2018-12-19T19:49:55.921Z,20.03
2018-12-19T19:52:30.370Z,19.67
2018-12-19T19:55:06.751Z,20.93
2018-12-19T19:57:44.892Z,21.30
2018-12-19T20:00:32.261Z,20.27
2018-12-19T20:03:08.180Z,18.73
2018-12-19T20:05:46.278Z,22.20
2018-12-19T20:08:28.185Z,20.87
2018-12-19T20:11:06.188Z,21.83
2018-12-19T20:13:51.459Z,21.37
2018-12-19T20:16:35.049Z,25.50
2018-12-19T20:19:13.041Z,27.37
2018-12-19T20:21:50.657Z,32.80
2018-12-19T20:24:25.933Z,27.87
2018-12-19T20:27:05.732Z,20.50
2018-12-19T20:29:46.158Z,24.73
2018-12-19T20:32:31.826Z,18.80
2018-12-19T20:35:12.878Z,21.47
2018-12-19T20:37:55.384Z,19.90
2018-12-19T20:40:36.625Z,18.50
2018-12-19T20:43:12.365Z,20.00
2018-12-19T20:45:48.429Z,17.60
2018-12-19T20:48:24.493Z,21.30
2018-12-19T20:51:01.644Z,19.53
2018-12-19T20:53:37.735Z,24.80
2018-12-19T20:56:14.592Z,28.07
2018-12-19T20:58:48.516Z,25.97
2018-12-19T21:01:24.774Z,25.40
2018-12-19T21:04:01.001Z,28.60
2018-12-19T21:06:39.216Z,23.23
2018-12-19T21:09:22.584Z,20.30
2018-12-19T21:11:55.680Z,19.33
2018-12-19T21:20:44.344Z,28.73
2018-12-19T21:23:26.421Z,22.70
2018-12-19T21:26:00.404Z,19.53
2018-12-19T21:28:36.656Z,18.90
2018-12-19T21:31:11.181Z,20.07
2018-12-19T21:33:56.751Z,19.97
2018-12-19T21:36:34.639Z,17.77
2018-12-19T21:39:15.414Z,19.70
2018-12-19T21:41:49.387Z,19.97
2018-12-19T21:44:25.734Z,19.83
2018-12-19T21:46:59.616Z,20.83
2018-12-19T21:49:41.889Z,18.93
2018-12-19T21:52:17.489Z,19.60
2018-12-19T21:54:58.092Z,22.10
2018-12-19T22:00:34.650Z,16.97
2018-12-19T22:03:24.387Z,20.43
2018-12-19T22:06:04.160Z,17.27
2018-12-19T22:08:48.559Z,19.47
2018-12-19T22:11:24.251Z,17.10
2018-12-19T22:14:00.667Z,18.07
2018-12-19T22:16:47.762Z,21.17
2018-12-19T22:19:29.442Z,19.37
2018-12-19T22:22:02.872Z,21.43
2018-12-19T22:24:40.891Z,18.53
2018-12-19T22:27:11.953Z,16.43
2018-12-19T22:29:50.385Z,17.13
2018-12-19T22:32:26.191Z,19.53
2018-12-19T22:40:33.391Z,16.67
2018-12-19T22:43:06.725Z,15.43
2018-12-19T22:45:39.783Z,17.03
2018-12-19T22:56:54.536Z,16.10
2018-12-19T22:59:35.378Z,16.70
2018-12-19T23:02:19.336Z,17.70
2018-12-19T23:04:58.503Z,17.37
2018-12-19T23:07:35.647Z,17.97
2018-12-19T23:10:11.225Z,18.13
2018-12-19T23:12:42.719Z,17.83
2018-12-19T23:17:53.773Z,17.70
2018-12-19T23:20:35.132Z,18.70
2018-12-19T23:26:08.555Z,18.23
2018-12-19T23:28:44.341Z,15.93
2018-12-19T23:31:19.945Z,16.97
2018-12-19T23:33:50.611Z,16.90
2018-12-19T23:36:32.056Z,19.90
2018-12-19T23:39:06.898Z,17.17
2018-12-19T23:41:40.423Z,16.53
2018-12-19T23:44:13.591Z,18.73
2018-12-19T23:46:55.353Z,21.37
2018-12-19T23:49:35.040Z,20.00
2018-12-19T23:52:10.794Z,18.80
2018-12-19T23:54:45.858Z,17.93
2018-12-19T23:57:18.594Z,19.17
2018-12-19T23:59:53.810Z,18.73
